TimeCST,TemperatureF,Dew PointF,Humidity,Sea Level PressureIn,VisibilityMPH,Wind Direction,Wind SpeedMPH,Gust SpeedMPH,PrecipitationIn,Events,Conditions,WindDirDegrees,DateUTC
12:15 AM,26.8,23.4,87,30.05,10.0,North,8.1,-,N/A,,Overcast,360,2014-02-16 06:15:00
12:35 AM,26.1,22.8,88,30.06,10.0,NNW,11.5,-,N/A,,Overcast,340,2014-02-16 06:35:00
12:55 AM,24.6,21.7,89,30.09,7.0,North,8.1,-,N/A,,Overcast,350,2014-02-16 06:55:00
1:15 AM,24.3,21.7,90,30.08,7.0,NNW,5.8,-,N/A,,Overcast,340,2014-02-16 07:15:00
1:35 AM,24.4,21.7,89,30.10,7.0,WNW,4.6,-,N/A,,Overcast,300,2014-02-16 07:35:00
1:55 AM,24.3,21.7,90,30.09,7.0,NW,3.5,-,N/A,,Overcast,310,2014-02-16 07:55:00
2:15 AM,24.4,21.9,90,30.08,7.0,Calm,Calm,-,N/A,,Overcast,0,2014-02-16 08:15:00
2:35 AM,24.6,22.1,90,30.08,5.0,Calm,Calm,-,N/A,,Overcast,0,2014-02-16 08:35:00
2:55 AM,24.4,22.1,91,30.09,7.0,Calm,Calm,-,N/A,,Overcast,0,2014-02-16 08:55:00
3:15 AM,24.6,22.1,90,30.08,7.0,Calm,Calm,-,N/A,,Overcast,0,2014-02-16 09:15:00
3:35 AM,24.6,22.1,90,30.06,4.0,NE,3.5,-,N/A,,Overcast,50,2014-02-16 09:35:00
3:55 AM,24.6,22.1,90,30.05,5.0,NE,4.6,-,N/A,,Overcast,50,2014-02-16 09:55:00
4:15 AM,24.6,22.1,90,30.05,4.0,ENE,3.5,-,N/A,,Overcast,60,2014-02-16 10:15:00
4:35 AM,24.4,22.1,91,30.04,2.5,East,5.8,-,N/A,,Overcast,80,2014-02-16 10:35:00
4:55 AM,24.6,22.1,90,30.03,3.0,East,5.8,-,N/A,,Overcast,90,2014-02-16 10:55:00
5:15 AM,24.6,22.1,90,30.03,3.0,ESE,5.8,-,N/A,,Overcast,110,2014-02-16 11:15:00
5:35 AM,24.6,22.1,90,30.02,3.0,ESE,5.8,-,N/A,,Overcast,110,2014-02-16 11:35:00
5:55 AM,24.4,21.9,90,30.01,3.0,East,6.9,-,N/A,,Overcast,90,2014-02-16 11:55:00
6:15 AM,24.3,21.9,91,30.02,2.5,East,5.8,-,N/A,,Overcast,100,2014-02-16 12:15:00
6:35 AM,24.1,21.7,91,30.02,2.5,East,6.9,-,N/A,,Overcast,100,2014-02-16 12:35:00
6:55 AM,23.9,21.4,90,30.02,3.0,ESE,6.9,-,N/A,,Overcast,110,2014-02-16 12:55:00
7:15 AM,23.9,21.2,89,30.02,3.0,ESE,9.2,-,N/A,,Overcast,120,2014-02-16 13:15:00
7:35 AM,23.7,21.2,90,30.00,2.0,ESE,10.4,-,N/A,,Overcast,120,2014-02-16 13:35:00
7:55 AM,23.7,21.2,90,30.00,1.2,ESE,9.2,-,N/A,,Overcast,110,2014-02-16 13:55:00
8:15 AM,23.9,21.6,91,30.00,1.2,SE,10.4,-,N/A,,Overcast,130,2014-02-16 14:15:00
8:35 AM,24.6,22.1,90,30.00,2.0,SE,9.2,-,N/A,,Overcast,130,2014-02-16 14:35:00
8:55 AM,25.0,22.5,90,30.00,1.8,SE,11.5,-,N/A,,Overcast,130,2014-02-16 14:55:00
9:15 AM,25.2,22.6,90,29.99,0.8,SE,11.5,-,N/A,,Overcast,130,2014-02-16 15:15:00
9:35 AM,25.2,22.8,91,29.98,0.8,SE,12.7,-,N/A,,Overcast,130,2014-02-16 15:35:00
9:55 AM,25.2,22.8,91,29.97,1.0,SE,10.4,-,N/A,,Overcast,140,2014-02-16 15:55:00
10:15 AM,25.7,23.2,90,29.97,2.5,SE,11.5,-,N/A,,Overcast,140,2014-02-16 16:15:00
10:35 AM,25.7,23.0,89,29.95,2.5,SE,13.8,-,N/A,,Overcast,140,2014-02-16 16:35:00
10:55 AM,26.4,23.7,90,29.94,4.0,SSE,11.5,16.1,N/A,,Overcast,150,2014-02-16 16:55:00
11:15 AM,27.1,24.6,90,29.93,7.0,SE,11.5,-,N/A,,Overcast,140,2014-02-16 17:15:00
11:35 AM,28.2,25.5,90,29.91,10.0,SSE,18.4,-,N/A,,Overcast,150,2014-02-16 17:35:00
11:55 AM,29.1,25.9,88,29.90,10.0,SSE,19.6,24.2,N/A,,Overcast,150,2014-02-16 17:55:00
12:15 PM,31.6,25.3,78,29.88,10.0,SSE,20.7,26.5,N/A,,Overcast,150,2014-02-16 18:15:00
12:35 PM,34.0,25.5,71,29.86,10.0,SSE,23.0,27.6,N/A,,Mostly Cloudy,160,2014-02-16 18:35:00
12:55 PM,35.4,25.5,67,29.84,10.0,SSE,19.6,29.9,N/A,,Scattered Clouds,150,2014-02-16 18:55:00
1:15 PM,36.3,25.3,64,29.82,10.0,SSE,21.9,28.8,N/A,,Clear,160,2014-02-16 19:15:00
1:35 PM,36.5,25.2,64,29.78,10.0,SSE,26.5,34.5,N/A,,Clear,160,2014-02-16 19:35:00
1:55 PM,36.1,25.3,65,29.78,10.0,SSE,23.0,33.4,N/A,,Scattered Clouds,150,2014-02-16 19:55:00
2:15 PM,36.9,25.5,64,29.77,10.0,SSE,26.5,33.4,N/A,,Scattered Clouds,160,2014-02-16 20:15:00
2:35 PM,37.0,26.2,65,29.78,10.0,SSE,21.9,35.7,N/A,,Scattered Clouds,160,2014-02-16 20:35:00
2:55 PM,36.7,26.4,66,29.75,10.0,SSE,23.0,32.2,N/A,,Scattered Clouds,160,2014-02-16 20:55:00
3:15 PM,38.5,26.8,63,29.72,10.0,SSE,28.8,33.4,N/A,,Clear,160,2014-02-16 21:15:00
3:35 PM,39.2,27.1,62,29.72,10.0,SSE,25.3,29.9,N/A,,Clear,160,2014-02-16 21:35:00
3:55 PM,39.7,27.5,62,29.73,10.0,South,26.5,33.4,N/A,,Clear,170,2014-02-16 21:55:00
4:15 PM,38.8,27.5,64,29.73,10.0,South,20.7,27.6,N/A,,Clear,170,2014-02-16 22:15:00
4:35 PM,39.2,27.7,63,29.71,10.0,SSE,23.0,33.4,N/A,,Clear,160,2014-02-16 22:35:00
4:55 PM,40.1,28.4,63,29.70,10.0,SSE,23.0,28.8,N/A,,Clear,160,2014-02-16 22:55:00
5:15 PM,39.9,28.4,63,29.70,10.0,South,20.7,31.1,N/A,,Clear,170,2014-02-16 23:15:00
5:35 PM,40.1,28.4,63,29.70,10.0,South,21.9,27.6,N/A,,Clear,170,2014-02-16 23:35:00
5:55 PM,39.2,28.4,65,29.72,10.0,SSE,16.1,25.3,N/A,,Clear,160,2014-02-16 23:55:00
6:15 PM,38.3,28.4,68,29.70,10.0,SSE,18.4,24.2,N/A,,Clear,150,2014-02-17 00:15:00
6:35 PM,37.8,28.4,69,29.70,10.0,SSE,18.4,26.5,N/A,,Clear,150,2014-02-17 00:35:00
6:55 PM,37.0,28.2,70,29.70,10.0,SSE,15.0,24.2,N/A,,Clear,150,2014-02-17 00:55:00
7:15 PM,37.4,28.6,70,29.69,10.0,SSE,18.4,25.3,N/A,,Clear,150,2014-02-17 01:15:00
7:35 PM,37.6,28.8,70,29.68,10.0,SSE,23.0,34.5,N/A,,Clear,160,2014-02-17 01:35:00
7:55 PM,36.5,28.4,72,29.67,10.0,SSE,24.2,29.9,N/A,,Clear,160,2014-02-17 01:55:00
8:15 PM,36.0,28.4,74,29.67,10.0,SSE,19.6,28.8,N/A,,Clear,160,2014-02-17 02:15:00
8:35 PM,35.6,28.4,75,29.66,10.0,SSE,23.0,29.9,N/A,,Clear,160,2014-02-17 02:35:00
8:55 PM,35.6,28.8,76,29.65,10.0,SSE,20.7,27.6,N/A,,Clear,160,2014-02-17 02:55:00
9:15 PM,36.5,29.3,75,29.65,10.0,South,21.9,25.3,N/A,,Clear,170,2014-02-17 03:15:00
9:35 PM,36.5,29.3,75,29.69,10.0,South,15.0,23.0,N/A,,Clear,170,2014-02-17 03:35:00
9:55 PM,36.9,29.8,76,29.68,10.0,South,17.3,21.9,N/A,,Scattered Clouds,170,2014-02-17 03:55:00
10:15 PM,37.8,30.2,74,29.70,10.0,SSW,12.7,-,N/A,,Overcast,200,2014-02-17 04:15:00
10:35 PM,38.1,32.0,79,29.69,7.0,South,12.7,-,N/A,Rain,Light Rain,190,2014-02-17 04:35:00
10:55 PM,38.7,32.2,78,29.68,10.0,South,17.3,21.9,N/A,Rain,Light Rain,190,2014-02-17 04:55:00
11:15 PM,38.5,32.9,80,29.68,10.0,South,13.8,20.7,0.01,Rain,Light Rain,190,2014-02-17 05:15:00
11:35 PM,38.5,32.9,80,29.67,10.0,South,16.1,-,0.01,Rain,Light Rain,190,2014-02-17 05:35:00
11:55 PM,38.7,32.9,80,29.66,10.0,South,16.1,21.9,0.01,,Overcast,190,2014-02-17 05:55:00